createdAt,value
2019-03-28T00:01:51.820Z,73.69
2019-03-28T00:04:23.076Z,73.70
2019-03-28T00:06:54.293Z,73.46
2019-03-28T00:09:25.487Z,73.18
2019-03-28T00:11:57.107Z,72.89
2019-03-28T00:14:29.114Z,72.82
2019-03-28T00:17:00.346Z,72.63
2019-03-28T00:19:31.531Z,72.86
2019-03-28T00:22:05.528Z,72.71
2019-03-28T00:24:57.394Z,72.78
2019-03-28T00:27:28.984Z,72.91
2019-03-28T00:30:00.042Z,74.03
2019-03-28T00:32:31.305Z,73.89
2019-03-28T00:35:02.550Z,74.32
2019-03-28T00:37:33.716Z,73.98
2019-03-28T00:40:05.267Z,74.43
2019-03-28T00:42:36.573Z,74.80
2019-03-28T00:45:08.703Z,75.28
2019-03-28T00:47:39.888Z,75.18
2019-03-28T00:50:11.781Z,75.11
2019-03-28T00:52:43.037Z,75.40
2019-03-28T00:55:14.620Z,75.15
2019-03-28T00:57:45.841Z,74.87
2019-03-28T01:00:17.928Z,74.85
2019-03-28T01:02:49.139Z,74.93
2019-03-28T01:05:20.275Z,74.81
2019-03-28T01:07:51.616Z,74.61
2019-03-28T01:10:22.862Z,74.97
2019-03-28T01:12:54.078Z,75.15
2019-03-28T01:15:25.289Z,74.93
2019-03-28T01:17:56.518Z,75.27
2019-03-28T01:20:28.012Z,75.05
2019-03-28T01:22:59.190Z,75.25
2019-03-28T01:25:30.314Z,75.21
2019-03-28T01:28:01.457Z,75.29
2019-03-28T01:30:33.044Z,75.25
2019-03-28T01:33:04.283Z,75.57
2019-03-28T01:35:35.586Z,75.88
2019-03-28T01:38:06.776Z,76.07
2019-03-28T01:40:38.340Z,76.45
2019-03-28T01:43:09.468Z,77.23
2019-03-28T01:45:40.678Z,77.35
2019-03-28T01:48:13.096Z,77.39
2019-03-28T01:50:44.330Z,78.12
2019-03-28T01:53:15.635Z,78.16
2019-03-28T01:55:46.927Z,78.45
2019-03-28T01:58:18.172Z,78.09
2019-03-28T02:00:49.315Z,78.14
2019-03-28T02:03:20.561Z,79.03
2019-03-28T02:05:51.671Z,78.93
2019-03-28T02:08:24.853Z,79.58
2019-03-28T02:10:55.886Z,79.13
2019-03-28T02:13:27.296Z,79.42
2019-03-28T02:15:58.552Z,79.29
2019-03-28T02:18:30.302Z,79.43
2019-03-28T02:21:01.490Z,79.93
2019-03-28T02:23:32.784Z,79.58
2019-03-28T02:26:03.959Z,79.61
2019-03-28T02:28:35.276Z,79.83
2019-03-28T02:31:06.399Z,80.30
2019-03-28T02:33:37.652Z,81.00
2019-03-28T02:36:08.932Z,80.98
2019-03-28T02:38:40.151Z,80.98
2019-03-28T02:41:11.378Z,81.04
2019-03-28T02:43:42.844Z,81.18
2019-03-28T02:46:14.095Z,81.48
2019-03-28T02:48:45.350Z,81.16
2019-03-28T02:51:16.597Z,81.28
2019-03-28T02:53:48.191Z,81.49
2019-03-28T02:56:19.437Z,81.57
2019-03-28T02:58:51.027Z,81.91
2019-03-28T03:01:22.260Z,81.82
2019-03-28T03:03:53.481Z,81.89
2019-03-28T03:06:24.651Z,81.87
2019-03-28T03:08:56.002Z,82.01
2019-03-28T03:11:27.237Z,82.00
2019-03-28T03:13:58.369Z,81.89
2019-03-28T03:16:30.049Z,82.14
2019-03-28T03:19:01.533Z,82.06
2019-03-28T03:21:32.758Z,82.02
2019-03-28T03:24:04.029Z,82.08
2019-03-28T03:26:35.622Z,82.09
2019-03-28T03:29:10.115Z,81.86
2019-03-28T03:31:41.326Z,81.75
2019-03-28T03:34:12.630Z,81.59
2019-03-28T03:36:43.965Z,81.67
2019-03-28T03:39:15.314Z,81.54
2019-03-28T03:41:46.603Z,81.71
2019-03-28T03:44:17.759Z,81.78
2019-03-28T03:46:49.041Z,81.40
2019-03-28T03:49:21.726Z,81.04
2019-03-28T03:51:52.886Z,81.16
2019-03-28T03:54:23.980Z,81.27
2019-03-28T03:56:55.465Z,81.20
2019-03-28T03:59:27.052Z,81.37
2019-03-28T04:01:58.349Z,81.45
2019-03-28T04:04:29.546Z,81.55
2019-03-28T04:07:01.394Z,81.52
2019-03-28T04:09:32.548Z,81.27
2019-03-28T04:12:03.833Z,81.79
2019-03-28T04:14:35.375Z,81.99
2019-03-28T04:17:07.174Z,81.88
2019-03-28T04:19:38.396Z,81.47
2019-03-28T04:22:10.080Z,81.40
2019-03-28T04:24:41.658Z,81.16
2019-03-28T04:27:12.924Z,81.60
2019-03-28T04:29:44.048Z,82.03
2019-03-28T04:32:15.242Z,81.73
2019-03-28T04:34:46.365Z,81.19
2019-03-28T04:37:17.442Z,81.10
2019-03-28T04:39:48.604Z,81.49
2019-03-28T04:42:19.753Z,81.33
2019-03-28T04:44:51.107Z,81.89
2019-03-28T04:47:22.332Z,82.00
2019-03-28T04:49:53.523Z,82.01
2019-03-28T04:52:24.800Z,81.91
2019-03-28T04:54:56.033Z,81.64
2019-03-28T04:57:27.269Z,81.59
2019-03-28T04:59:58.539Z,81.59
2019-03-28T05:02:29.781Z,81.42
2019-03-28T05:05:01.073Z,81.44
2019-03-28T05:07:32.203Z,81.69
2019-03-28T05:10:03.551Z,81.52
2019-03-28T05:12:34.801Z,81.37
2019-03-28T05:15:07.393Z,81.18
2019-03-28T05:17:38.592Z,80.97
2019-03-28T05:20:13.059Z,80.86
2019-03-28T05:22:43.056Z,81.43
2019-03-28T05:25:14.540Z,81.14
2019-03-28T05:27:45.748Z,81.19
2019-03-28T05:30:17.573Z,80.79
2019-03-28T05:32:48.993Z,80.81
2019-03-28T05:35:20.579Z,80.97
2019-03-28T05:37:51.835Z,80.88
2019-03-28T05:40:23.092Z,80.68
2019-03-28T05:42:54.451Z,80.34
2019-03-28T05:45:25.746Z,80.23
2019-03-28T05:48:00.090Z,80.33
2019-03-28T05:50:30.229Z,79.99
2019-03-28T05:53:01.425Z,80.00
2019-03-28T05:55:32.635Z,79.80
2019-03-28T05:58:04.212Z,79.65
2019-03-28T06:00:38.794Z,79.85
2019-03-28T06:03:08.731Z,79.64
2019-03-28T06:05:40.554Z,79.29
2019-03-28T06:08:11.702Z,79.23
2019-03-28T06:10:42.828Z,79.13
2019-03-28T06:13:14.110Z,78.51
2019-03-28T06:15:45.483Z,78.23
2019-03-28T06:18:16.670Z,78.30
2019-03-28T06:20:48.014Z,77.93
2019-03-28T06:23:19.299Z,78.22
2019-03-28T06:25:50.649Z,78.09
2019-03-28T06:28:21.999Z,77.92
2019-03-28T06:30:56.048Z,77.88
2019-03-28T06:33:27.257Z,77.98
2019-03-28T06:35:58.525Z,77.84
2019-03-28T06:38:29.832Z,77.90
2019-03-28T06:41:01.458Z,77.74
2019-03-28T06:43:33.564Z,77.73
2019-03-28T06:46:04.840Z,77.69
2019-03-28T06:48:36.034Z,78.20
2019-03-28T06:51:07.484Z,78.20
2019-03-28T06:53:38.685Z,78.37
2019-03-28T06:56:09.906Z,78.12
2019-03-28T06:58:42.879Z,77.69
2019-03-28T07:01:14.524Z,77.96
2019-03-28T07:03:47.486Z,77.40
2019-03-28T07:06:18.857Z,77.60
2019-03-28T07:08:50.125Z,76.62
2019-03-28T07:11:21.763Z,76.33
2019-03-28T07:13:53.145Z,75.99
2019-03-28T07:16:25.664Z,76.09
2019-03-28T07:18:56.856Z,74.89
2019-03-28T07:21:28.050Z,74.36
2019-03-28T07:23:59.815Z,74.07
2019-03-28T07:26:31.146Z,73.40
2019-03-28T07:29:02.934Z,72.74
2019-03-28T07:31:35.567Z,73.33
2019-03-28T07:34:07.090Z,73.01
2019-03-28T07:36:39.383Z,71.31
2019-03-28T07:39:11.242Z,71.25
2019-03-28T07:41:42.805Z,71.51
2019-03-28T07:44:14.876Z,71.29
2019-03-28T07:46:47.741Z,72.08
2019-03-28T07:49:20.034Z,71.82
2019-03-28T07:51:51.294Z,71.34
2019-03-28T07:54:24.344Z,71.35
2019-03-28T07:56:55.581Z,71.00
2019-03-28T07:59:26.815Z,70.34
2019-03-28T08:01:58.070Z,70.33
2019-03-28T08:04:29.302Z,70.19
2019-03-28T08:07:00.556Z,69.87
2019-03-28T08:09:36.738Z,70.47
2019-03-28T08:12:05.057Z,69.78
2019-03-28T08:14:36.362Z,69.99
2019-03-28T08:17:08.536Z,69.67
2019-03-28T08:19:41.554Z,68.79
2019-03-28T08:22:12.605Z,69.38
2019-03-28T08:24:43.777Z,70.51
2019-03-28T08:27:15.043Z,70.33
2019-03-28T08:29:46.240Z,69.07
2019-03-28T08:32:20.554Z,69.89
2019-03-28T08:34:51.957Z,69.56
2019-03-28T08:37:23.270Z,68.96
2019-03-28T08:39:55.700Z,69.43
2019-03-28T08:42:27.227Z,68.73
2019-03-28T08:44:58.419Z,67.90
2019-03-28T08:47:29.961Z,64.76
2019-03-28T08:50:01.225Z,62.33
2019-03-28T08:52:32.485Z,62.15
2019-03-28T08:55:04.204Z,63.41
2019-03-28T08:57:35.502Z,61.91
2019-03-28T09:00:09.383Z,61.41
2019-03-28T09:02:39.271Z,62.06
2019-03-28T09:05:11.062Z,59.79
2019-03-28T09:07:42.529Z,59.25
2019-03-28T09:10:13.942Z,59.91
2019-03-28T09:12:45.168Z,59.71
2019-03-28T09:15:16.689Z,59.17
2019-03-28T09:17:47.907Z,56.19
2019-03-28T09:20:19.375Z,56.80
2019-03-28T09:22:51.942Z,56.86
2019-03-28T09:25:23.157Z,56.33
2019-03-28T09:27:54.469Z,56.68
2019-03-28T09:30:48.086Z,55.91
2019-03-28T09:33:10.943Z,55.87
2019-03-28T09:35:42.180Z,54.43
2019-03-28T09:38:13.756Z,54.65
2019-03-28T09:40:44.966Z,54.26
2019-03-28T09:43:16.177Z,55.45
2019-03-28T09:45:47.473Z,55.19
2019-03-28T09:48:18.780Z,55.75
2019-03-28T09:50:50.004Z,56.12
2019-03-28T09:53:21.332Z,56.34
2019-03-28T09:55:52.605Z,55.97
2019-03-28T09:58:23.773Z,56.82
2019-03-28T10:01:02.917Z,56.55
2019-03-28T10:03:29.692Z,56.93
2019-03-28T10:06:00.888Z,57.15
2019-03-28T10:08:32.160Z,56.99
2019-03-28T10:11:03.418Z,56.57
2019-03-28T10:13:34.611Z,57.03
2019-03-28T10:16:06.084Z,56.82
2019-03-28T10:18:37.291Z,56.25
2019-03-28T10:21:08.669Z,57.46
2019-03-28T10:23:40.074Z,57.57
2019-03-28T10:26:11.186Z,57.70
2019-03-28T10:28:42.413Z,57.10
2019-03-28T10:31:16.608Z,57.82
2019-03-28T10:33:47.223Z,57.66
2019-03-28T10:36:18.765Z,58.45
2019-03-28T10:38:50.013Z,58.04
2019-03-28T10:41:21.497Z,58.52
2019-03-28T10:43:52.737Z,58.33
2019-03-28T10:46:23.984Z,58.33
2019-03-28T10:48:55.121Z,57.45
2019-03-28T10:51:26.367Z,54.91
2019-03-28T10:53:57.819Z,54.73
2019-03-28T10:56:29.005Z,54.44
2019-03-28T10:59:00.286Z,55.09
2019-03-28T11:01:47.611Z,53.28
2019-03-28T11:04:04.559Z,53.12
2019-03-28T11:06:35.674Z,54.11
2019-03-28T11:09:08.812Z,54.50
2019-03-28T11:11:39.987Z,53.57
2019-03-28T11:14:11.486Z,54.47
2019-03-28T11:16:42.728Z,51.99
2019-03-28T11:19:15.723Z,52.98
2019-03-28T11:21:47.021Z,51.93
2019-03-28T11:24:18.205Z,52.50
2019-03-28T11:26:49.754Z,51.56
2019-03-28T11:29:21.009Z,52.51
2019-03-28T11:31:52.744Z,50.36
2019-03-28T11:34:24.040Z,51.45
2019-03-28T11:36:56.010Z,50.50
2019-03-28T11:39:27.539Z,50.78
2019-03-28T11:42:00.517Z,51.29
2019-03-28T11:44:31.802Z,51.57
2019-03-28T11:47:03.128Z,51.06
2019-03-28T11:49:34.388Z,50.49
2019-03-28T11:52:05.724Z,50.51
2019-03-28T11:54:36.936Z,51.23
2019-03-28T11:57:08.222Z,51.27
2019-03-28T11:59:39.757Z,50.61
2019-03-28T12:02:19.751Z,50.33
2019-03-28T12:04:43.968Z,49.54
2019-03-28T12:07:15.209Z,49.77
2019-03-28T12:09:46.456Z,49.55
2019-03-28T12:12:17.638Z,47.99
2019-03-28T12:14:48.936Z,49.44
2019-03-28T12:17:20.492Z,49.92
2019-03-28T12:19:51.752Z,49.35
2019-03-28T12:22:22.902Z,49.77
2019-03-28T12:24:54.140Z,49.42
2019-03-28T12:27:25.441Z,48.53
2019-03-28T12:29:56.565Z,49.59
2019-03-28T12:32:27.787Z,49.34
2019-03-28T12:34:58.978Z,49.68
2019-03-28T12:37:30.080Z,49.26
2019-03-28T12:40:01.311Z,49.57
2019-03-28T12:42:32.568Z,49.41
2019-03-28T12:45:03.895Z,49.42
2019-03-28T12:47:42.193Z,50.05
2019-03-28T12:50:10.853Z,50.08
2019-03-28T12:52:41.993Z,48.78
2019-03-28T12:55:13.440Z,49.42
2019-03-28T12:57:44.670Z,48.96
2019-03-28T13:00:16.187Z,49.43
2019-03-28T13:02:47.295Z,49.43
2019-03-28T13:05:18.642Z,49.77
2019-03-28T13:07:49.895Z,48.93
2019-03-28T13:10:21.149Z,49.05
2019-03-28T13:12:52.393Z,49.47
2019-03-28T13:15:23.802Z,49.65
2019-03-28T13:17:55.113Z,49.60
2019-03-28T13:20:27.758Z,49.52
2019-03-28T13:22:58.930Z,49.04
2019-03-28T13:25:30.478Z,49.62
2019-03-28T13:28:02.713Z,49.69
2019-03-28T13:30:34.970Z,50.22
2019-03-28T13:33:06.725Z,49.99
2019-03-28T13:35:37.934Z,49.18
2019-03-28T13:38:09.148Z,49.01
2019-03-28T13:40:40.380Z,49.33
2019-03-28T13:43:11.503Z,49.92
2019-03-28T13:45:43.413Z,49.23
2019-03-28T13:48:14.645Z,48.93
2019-03-28T13:50:46.177Z,49.33
2019-03-28T13:53:17.263Z,49.03
2019-03-28T13:55:48.429Z,49.73
2019-03-28T13:58:20.459Z,49.08
2019-03-28T14:00:54.419Z,48.22
2019-03-28T14:03:24.894Z,47.79
2019-03-28T14:05:56.065Z,47.81
2019-03-28T14:08:28.732Z,48.41
2019-03-28T14:10:59.912Z,49.01
2019-03-28T14:13:31.765Z,48.59
2019-03-28T14:16:02.950Z,49.06
2019-03-28T14:18:34.228Z,48.33
2019-03-28T14:21:05.467Z,48.29
2019-03-28T14:23:36.676Z,48.68
2019-03-28T14:26:07.905Z,48.84
2019-03-28T14:28:39.374Z,49.43
2019-03-28T14:31:10.834Z,48.16
2019-03-28T14:33:42.163Z,49.02
2019-03-28T14:36:14.050Z,47.55
2019-03-28T14:38:45.636Z,48.78
2019-03-28T14:41:16.909Z,47.27
2019-03-28T14:43:48.112Z,46.95
2019-03-28T14:46:19.316Z,47.65
2019-03-28T14:48:50.675Z,46.80
2019-03-28T14:51:21.925Z,47.56
2019-03-28T14:53:53.338Z,48.36
2019-03-28T14:56:25.001Z,47.98
2019-03-28T14:58:59.011Z,47.92
2019-03-28T15:01:30.664Z,48.71
2019-03-28T15:04:02.172Z,49.16
2019-03-28T15:06:33.492Z,48.71
2019-03-28T15:09:05.972Z,49.28
2019-03-28T15:11:37.241Z,48.38
2019-03-28T15:14:08.407Z,48.55
2019-03-28T15:16:39.898Z,48.51
2019-03-28T15:19:11.521Z,48.72
2019-03-28T15:21:42.718Z,48.64
2019-03-28T15:24:13.876Z,48.10
2019-03-28T15:26:45.195Z,48.78
2019-03-28T15:29:16.803Z,48.73
2019-03-28T15:31:48.400Z,49.04
2019-03-28T15:34:19.608Z,49.43
2019-03-28T15:36:51.148Z,48.85
2019-03-28T15:39:22.467Z,49.47
2019-03-28T15:41:54.149Z,49.08
2019-03-28T15:44:25.318Z,49.46
2019-03-28T15:46:56.490Z,49.45
2019-03-28T15:49:27.930Z,48.83
2019-03-28T15:51:59.475Z,48.99
2019-03-28T15:54:30.663Z,49.29
2019-03-28T15:57:01.944Z,49.23
2019-03-28T15:59:33.112Z,49.44
2019-03-28T16:02:04.664Z,49.71
2019-03-28T16:04:36.225Z,49.57
2019-03-28T16:07:07.815Z,49.64
2019-03-28T16:09:39.214Z,49.62
2019-03-28T16:12:10.508Z,49.84
2019-03-28T16:14:42.213Z,49.58
2019-03-28T16:17:13.557Z,50.24
2019-03-28T16:19:45.213Z,49.95
2019-03-28T16:22:16.519Z,50.32
2019-03-28T16:24:47.778Z,50.39
2019-03-28T16:27:19.569Z,50.29
2019-03-28T16:29:54.218Z,50.91
2019-03-28T16:32:24.184Z,51.01
2019-03-28T16:34:55.403Z,51.29
2019-03-28T16:37:27.702Z,51.45
2019-03-28T16:39:59.213Z,51.21
2019-03-28T16:42:30.415Z,51.10
2019-03-28T16:45:01.591Z,50.71
2019-03-28T16:47:33.341Z,51.24
2019-03-28T16:50:08.206Z,51.17
2019-03-28T16:52:39.471Z,51.25
2019-03-28T16:55:10.673Z,51.62
2019-03-28T16:57:42.618Z,51.62
2019-03-28T17:00:15.013Z,51.68
2019-03-28T17:02:46.728Z,51.73
2019-03-28T17:05:17.992Z,52.34
2019-03-28T17:07:51.634Z,52.15
2019-03-28T17:10:46.800Z,52.21
2019-03-28T17:13:18.745Z,51.89
2019-03-28T17:15:51.030Z,52.28
2019-03-28T17:18:22.729Z,52.43
2019-03-28T17:20:53.942Z,52.79
2019-03-28T17:23:25.245Z,52.65
2019-03-28T17:25:56.813Z,52.84
2019-03-28T17:28:28.027Z,53.15
2019-03-28T17:30:59.390Z,53.25
2019-03-28T17:33:31.909Z,53.25
2019-03-28T17:36:03.514Z,53.94
2019-03-28T17:38:34.659Z,54.02
2019-03-28T17:41:06.626Z,54.50
2019-03-28T17:43:38.076Z,54.84
2019-03-28T17:46:12.175Z,54.94
2019-03-28T17:48:42.312Z,54.76
2019-03-28T17:51:13.849Z,54.98
2019-03-28T17:53:45.692Z,54.88
2019-03-28T17:56:17.327Z,55.00
2019-03-28T17:58:48.578Z,54.82
2019-03-28T18:01:20.420Z,54.85
2019-03-28T18:03:51.751Z,54.91
2019-03-28T18:06:23.025Z,55.26
2019-03-28T18:08:55.340Z,55.50
2019-03-28T18:11:26.967Z,55.91
2019-03-28T18:13:58.581Z,56.57
2019-03-28T18:16:29.822Z,56.86
2019-03-28T18:19:01.319Z,57.10
2019-03-28T18:21:32.904Z,57.64
2019-03-28T18:24:04.642Z,57.68
2019-03-28T18:26:35.934Z,57.76
2019-03-28T18:29:07.272Z,57.57
2019-03-28T18:31:49.654Z,57.60
2019-03-28T18:34:12.672Z,57.86
2019-03-28T18:36:47.145Z,58.00
2019-03-28T18:39:17.172Z,57.91
2019-03-28T18:41:48.445Z,57.84
2019-03-28T18:44:19.680Z,57.63
2019-03-28T18:46:51.775Z,57.90
2019-03-28T18:49:23.375Z,58.20
2019-03-28T18:51:54.610Z,58.33
2019-03-28T18:54:25.902Z,58.72
2019-03-28T18:56:57.273Z,58.59
2019-03-28T18:59:28.717Z,58.78
2019-03-28T19:01:59.852Z,59.08
2019-03-28T19:04:31.129Z,59.29
2019-03-28T19:07:02.299Z,59.32
2019-03-28T19:09:33.637Z,59.58
2019-03-28T19:12:04.710Z,59.70
2019-03-28T19:14:35.960Z,59.82
2019-03-28T19:17:07.842Z,59.77
2019-03-28T19:19:39.894Z,60.11
2019-03-28T19:22:11.150Z,59.99
2019-03-28T19:24:42.795Z,59.81
2019-03-28T19:27:14.494Z,59.68
2019-03-28T19:29:46.036Z,59.62
2019-03-28T19:32:17.251Z,59.88
2019-03-28T19:34:48.570Z,59.83
2019-03-28T19:37:22.722Z,60.30
2019-03-28T19:39:52.818Z,60.35
2019-03-28T19:42:24.123Z,60.74
2019-03-28T19:44:55.738Z,61.24
2019-03-28T19:47:28.556Z,61.54
2019-03-28T19:49:59.975Z,61.19
2019-03-28T19:52:31.348Z,61.36
2019-03-28T19:55:02.810Z,61.68
2019-03-28T19:57:33.947Z,62.24
2019-03-28T20:00:05.674Z,62.50
2019-03-28T20:02:37.519Z,62.67
2019-03-28T20:05:09.311Z,62.53
2019-03-28T20:07:40.638Z,62.58
2019-03-28T20:10:16.635Z,62.54
2019-03-28T20:12:44.797Z,62.54
2019-03-28T20:15:15.975Z,62.68
2019-03-28T20:17:48.063Z,62.48
2019-03-28T20:20:19.481Z,62.38
2019-03-28T20:22:50.640Z,62.68
2019-03-28T20:25:21.902Z,62.52
2019-03-28T20:27:53.112Z,62.21
2019-03-28T20:30:24.919Z,62.10
2019-03-28T20:32:56.208Z,61.86
2019-03-28T20:35:27.340Z,62.02
2019-03-28T20:37:58.586Z,62.20
2019-03-28T20:40:29.934Z,62.41
2019-03-28T20:43:01.240Z,62.76
2019-03-28T20:45:32.615Z,62.62
2019-03-28T20:48:03.955Z,62.80
2019-03-28T20:50:35.249Z,62.67
2019-03-28T20:53:06.460Z,62.65
2019-03-28T20:55:38.093Z,63.15
2019-03-28T20:58:09.851Z,63.47
2019-03-28T21:00:46.794Z,63.75
2019-03-28T21:03:18.633Z,63.92
2019-03-28T21:05:49.958Z,64.54
2019-03-28T21:08:21.100Z,64.58
2019-03-28T21:10:52.741Z,65.10
2019-03-28T21:13:23.984Z,65.16
2019-03-28T21:15:55.210Z,65.43
2019-03-28T21:18:26.912Z,65.68
2019-03-28T21:20:58.235Z,65.76
2019-03-28T21:23:29.441Z,66.11
2019-03-28T21:26:01.189Z,66.16
2019-03-28T21:28:32.367Z,66.46
2019-03-28T21:31:03.865Z,66.58
2019-03-28T21:33:36.191Z,67.01
2019-03-28T21:36:07.470Z,67.32
2019-03-28T21:38:38.679Z,67.33
2019-03-28T21:41:09.931Z,67.85
2019-03-28T21:43:42.813Z,67.91
2019-03-28T21:46:15.195Z,67.81
2019-03-28T21:48:46.485Z,68.25
2019-03-28T21:51:20.052Z,68.54
2019-03-28T21:53:50.628Z,68.63
2019-03-28T21:56:22.657Z,69.02
2019-03-28T21:58:55.326Z,69.26
2019-03-28T22:01:26.635Z,69.43
2019-03-28T22:03:58.497Z,69.51
2019-03-28T22:06:42.316Z,69.64
2019-03-28T22:09:04.353Z,69.71
2019-03-28T22:11:36.513Z,69.98
2019-03-28T22:14:07.734Z,70.26
2019-03-28T22:16:39.587Z,70.13
2019-03-28T22:19:10.723Z,70.23
2019-03-28T22:21:42.779Z,70.21
2019-03-28T22:24:14.085Z,70.35
2019-03-28T22:26:46.361Z,70.48
2019-03-28T22:29:17.815Z,70.77
2019-03-28T22:31:49.160Z,71.92
2019-03-28T22:34:20.534Z,72.11
2019-03-28T22:36:57.433Z,72.12
2019-03-28T22:39:24.792Z,72.43
2019-03-28T22:41:56.029Z,72.32
2019-03-28T22:44:27.405Z,72.50
2019-03-28T22:46:58.639Z,72.65
2019-03-28T22:49:30.095Z,72.56
2019-03-28T22:52:01.733Z,72.42
2019-03-28T22:54:33.017Z,72.70
2019-03-28T22:57:04.288Z,73.24
2019-03-28T22:59:35.557Z,73.20
2019-03-28T23:02:06.963Z,73.35
2019-03-28T23:04:39.347Z,73.24
2019-03-28T23:07:11.811Z,73.43
2019-03-28T23:09:43.204Z,73.26
2019-03-28T23:12:15.659Z,73.60
2019-03-28T23:14:46.914Z,73.81
2019-03-28T23:17:18.120Z,73.74
2019-03-28T23:19:49.367Z,73.62
2019-03-28T23:22:20.868Z,73.67
2019-03-28T23:24:52.133Z,73.54
2019-03-28T23:27:23.432Z,73.94
2019-03-28T23:29:55.054Z,73.87
2019-03-28T23:32:26.281Z,74.16
2019-03-28T23:34:57.806Z,73.85
2019-03-28T23:37:29.316Z,73.88
2019-03-28T23:40:00.780Z,73.82
2019-03-28T23:42:32.019Z,73.91
2019-03-28T23:45:03.257Z,74.26
2019-03-28T23:47:34.473Z,74.24
2019-03-28T23:50:06.975Z,74.63
2019-03-28T23:52:38.306Z,74.89
2019-03-28T23:55:09.931Z,74.90
2019-03-28T23:57:41.516Z,75.00
